Time;durP1;ratioP1;P1;durP2;ratioP2;P2;SDS_P1;SDS_P2;PMS_P1;PMS_P2;Temp;Humidity;BMP_temperature;BMP_pressure;BME280_temperature;BME280_humidity;BME280_pressure;Samples;Min_cycle;Max_cycle;Signal;HPM_P1;HPM_P2
2021/08/03 00:02:37;;;;;;;3.47;1.20;;;19.20;90.80;;;;;;5013346;28;20038;-65
2021/08/03 00:05:48;;;;;;;3.50;1.05;;;19.20;90.80;;;;;;5012940;28;20034;-65
2021/08/03 00:08:57;;;;;;;3.63;0.90;;;19.20;90.90;;;;;;5011953;28;20042;-64
2021/08/03 00:12:01;;;;;;;8.13;1.50;;;19.10;91.30;;;;;;5012841;28;20034;-64
2021/08/03 00:15:05;;;;;;;6.90;1.30;;;19.10;91.60;;;;;;5011238;28;20057;-64
2021/08/03 00:18:10;;;;;;;4.32;1.40;;;19.00;92.00;;;;;;5011886;28;20044;-64
2021/08/03 00:21:14;;;;;;;9.73;2.25;;;18.90;92.40;;;;;;5012494;28;20496;-64
2021/08/03 00:24:26;;;;;;;6.18;1.50;;;18.80;93.50;;;;;;5012210;28;20045;-64
2021/08/03 00:27:32;;;;;;;6.40;1.85;;;18.50;94.10;;;;;;5012405;28;20049;-64
2021/08/03 00:30:36;;;;;;;5.78;1.75;;;18.40;94.90;;;;;;5012514;28;20499;-64
2021/08/03 00:33:47;;;;;;;7.75;1.67;;;18.40;95.60;;;;;;5012314;28;20049;-64
2021/08/03 00:36:52;;;;;;;8.35;1.70;;;18.40;96.00;;;;;;5012259;28;20049;-65
2021/08/03 00:39:57;;;;;;;5.30;1.90;;;18.30;96.20;;;;;;5010583;28;20045;-65
2021/08/03 00:43:12;;;;;;;3.20;1.25;;;18.30;96.00;;;;;;5010987;28;20033;-65
2021/08/03 00:46:17;;;;;;;4.85;1.50;;;18.20;95.00;;;;;;5010975;28;20037;-64
2021/08/03 00:49:22;;;;;;;7.68;1.60;;;18.30;94.70;;;;;;5008837;28;20038;-65
2021/08/03 00:52:31;;;;;;;6.38;1.30;;;18.30;95.00;;;;;;5009542;28;20376;-66
2021/08/03 00:55:41;;;;;;;9.20;1.48;;;18.30;95.60;;;;;;5011082;28;20042;-65
2021/08/03 00:58:45;;;;;;;3.28;1.17;;;18.30;95.70;;;;;;5011498;28;20033;-65
2021/08/03 01:01:49;;;;;;;4.53;1.10;;;18.40;95.30;;;;;;5011758;28;20030;-64
2021/08/03 01:04:55;;;;;;;3.80;1.10;;;18.40;95.00;;;;;;5007885;28;20046;-65
2021/08/03 01:08:11;;;;;;;4.47;1.85;;;18.30;94.60;;;;;;5010378;28;20048;-65
2021/08/03 01:11:31;;;;;;;4.47;0.80;;;18.30;94.50;;;;;;5011678;28;20030;-65
2021/08/03 01:14:49;;;;;;;1.73;1.08;;;18.30;93.80;;;;;;5011107;28;20042;-64
2021/08/03 01:18:19;;;;;;;4.75;1.50;;;18.30;93.90;;;;;;5010379;28;20045;-63
2021/08/03 01:21:35;;;;;;;5.53;1.50;;;18.40;95.20;;;;;;5017535;28;20041;-64
2021/08/03 01:24:53;;;;;;;9.95;2.17;;;18.20;96.60;;;;;;5011996;28;20076;-64
2021/08/03 01:28:19;;;;;;;5.53;1.92;;;18.00;97.80;;;;;;5019784;28;20045;-64
2021/08/03 01:31:30;;;;;;;5.03;1.77;;;17.80;99.10;;;;;;5011248;28;20046;-64
2021/08/03 01:34:45;;;;;;;6.13;1.48;;;17.70;99.90;;;;;;5010586;28;20376;-64
2021/08/03 01:37:51;;;;;;;5.43;1.80;;;17.60;99.90;;;;;;5010380;28;20044;-64
2021/08/03 01:41:03;;;;;;;7.20;2.10;;;17.50;99.90;;;;;;5010615;28;20042;-64
2021/08/03 01:44:12;;;;;;;7.07;1.80;;;17.40;99.90;;;;;;5010869;28;20051;-64
2021/08/03 01:47:19;;;;;;;6.28;1.92;;;17.30;99.90;;;;;;5007394;28;20047;-64
2021/08/03 01:50:26;;;;;;;9.77;2.08;;;17.30;99.90;;;;;;5008080;28;20054;-64
2021/08/03 01:53:38;;;;;;;11.15;2.17;;;17.20;99.90;;;;;;5009993;28;20040;-64
2021/08/03 01:56:46;;;;;;;4.47;2.20;;;17.10;99.90;;;;;;5010556;28;20396;-64
2021/08/03 01:59:54;;;;;;;5.40;2.08;;;17.10;99.90;;;;;;5008980;28;20060;-64
2021/08/03 02:03:01;;;;;;;10.77;2.20;;;17.00;99.90;;;;;;5007737;28;20049;-63
2021/08/03 02:06:07;;;;;;;6.78;2.80;;;17.00;99.90;;;;;;5010941;28;20791;-64
2021/08/03 02:09:13;;;;;;;5.15;1.90;;;17.00;99.90;;;;;;5009989;28;20057;-65
2021/08/03 02:12:17;;;;;;;7.07;2.00;;;16.90;99.90;;;;;;5011345;28;20045;-64
2021/08/03 02:15:22;;;;;;;9.52;2.58;;;16.80;99.90;;;;;;5010267;28;20650;-64
2021/08/03 02:18:28;;;;;;;3.63;2.03;;;16.60;99.90;;;;;;5010055;28;20033;-65
2021/08/03 02:21:34;;;;;;;7.28;2.30;;;16.60;99.90;;;;;;5011373;28;20034;-64
2021/08/03 02:24:39;;;;;;;11.48;2.90;;;16.60;99.90;;;;;;5010277;28;20503;-65
2021/08/03 02:27:47;;;;;;;9.77;2.20;;;16.80;99.90;;;;;;5009936;28;20037;-64
2021/08/03 02:30:53;;;;;;;6.65;2.50;;;16.90;99.90;;;;;;5011184;28;20374;-64
2021/08/03 02:34:09;;;;;;;5.88;2.22;;;16.90;99.90;;;;;;5010480;28;20479;-64
2021/08/03 02:37:17;;;;;;;5.82;2.13;;;16.70;99.90;;;;;;5007841;28;20038;-64
2021/08/03 02:40:22;;;;;;;8.40;2.15;;;16.60;99.90;;;;;;5010331;28;20500;-64
2021/08/03 02:43:42;;;;;;;7.28;2.05;;;16.50;99.90;;;;;;5003957;28;20034;-64
2021/08/03 02:46:53;;;;;;;6.03;2.25;;;16.30;99.90;;;;;;5009718;28;20042;-64
2021/08/03 02:50:07;;;;;;;5.97;2.05;;;16.20;99.90;;;;;;5010226;28;20038;-64
2021/08/03 02:53:24;;;;;;;7.07;2.22;;;16.10;99.90;;;;;;5010983;28;20049;-64
2021/08/03 02:56:31;;;;;;;7.63;2.08;;;16.00;99.90;;;;;;5010579;28;20038;-64
2021/08/03 02:59:39;;;;;;;6.90;1.80;;;16.00;99.90;;;;;;5009573;28;20046;-64
2021/08/03 03:02:45;;;;;;;9.13;2.05;;;15.90;99.90;;;;;;5011012;28;20400;-65
2021/08/03 03:05:56;;;;;;;4.85;1.77;;;15.90;99.90;;;;;;5013405;28;20041;-64
2021/08/03 03:09:03;;;;;;;6.00;1.70;;;15.90;99.90;;;;;;5013751;28;20042;-65
2021/08/03 03:12:09;;;;;;;4.97;2.28;;;15.90;99.90;;;;;;5014141;28;20045;-64
2021/08/03 03:15:17;;;;;;;5.32;2.40;;;15.90;99.90;;;;;;5013468;28;20409;-64
2021/08/03 03:18:22;;;;;;;5.05;2.00;;;15.70;99.90;;;;;;5012779;28;20515;-64
2021/08/03 03:21:28;;;;;;;4.15;1.95;;;15.60;99.90;;;;;;5013094;28;20038;-64
2021/08/03 03:24:35;;;;;;;9.68;2.08;;;15.60;99.90;;;;;;5013209;28;20701;-63
2021/08/03 03:27:41;;;;;;;6.07;2.00;;;15.50;99.90;;;;;;5012885;28;20048;-64
2021/08/03 03:30:47;;;;;;;5.10;1.90;;;15.60;99.90;;;;;;5014005;28;20057;-64
2021/08/03 03:33:53;;;;;;;7.03;2.15;;;15.60;99.90;;;;;;5012934;28;20053;-64
2021/08/03 03:36:59;;;;;;;12.63;2.30;;;15.60;99.90;;;;;;5013711;28;20053;-64
2021/08/03 03:40:04;;;;;;;8.02;1.92;;;15.70;99.90;;;;;;5012319;28;20395;-64
2021/08/03 03:43:11;;;;;;;5.75;1.92;;;15.70;99.90;;;;;;5012798;28;20045;-64
2021/08/03 03:46:17;;;;;;;6.43;1.98;;;15.70;99.90;;;;;;5012915;28;20050;-63
2021/08/03 03:49:30;;;;;;;5.75;1.75;;;15.70;99.90;;;;;;5012104;28;20081;-64
2021/08/03 03:52:40;;;;;;;4.20;1.80;;;15.70;99.90;;;;;;5013793;28;20064;-64
2021/08/03 03:55:52;;;;;;;5.05;2.22;;;15.80;99.90;;;;;;5012366;28;20038;-64
2021/08/03 03:59:02;;;;;;;4.38;1.65;;;15.90;99.90;;;;;;5012018;28;20038;-65
2021/08/03 04:02:10;;;;;;;7.82;1.70;;;15.90;99.90;;;;;;5012521;28;20033;-64
2021/08/03 04:05:16;;;;;;;6.82;1.70;;;15.90;99.90;;;;;;5012603;28;20037;-64
2021/08/03 04:08:21;;;;;;;6.43;1.95;;;16.00;99.90;;;;;;5011728;28;20041;-64
2021/08/03 04:11:26;;;;;;;5.68;2.08;;;16.00;99.90;;;;;;5012650;28;20855;-64
2021/08/03 04:14:34;;;;;;;4.68;1.58;;;16.10;99.90;;;;;;5012023;28;20049;-64
2021/08/03 04:17:43;;;;;;;6.40;2.00;;;16.00;99.90;;;;;;5012054;28;20042;-64
2021/08/03 04:20:48;;;;;;;3.55;1.77;;;16.00;99.90;;;;;;5011712;28;20042;-64
2021/08/03 04:23:52;;;;;;;4.82;1.65;;;15.80;99.90;;;;;;5013005;28;20034;-64
2021/08/03 04:26:56;;;;;;;8.63;2.50;;;15.80;99.90;;;;;;5012971;28;20057;-64
2021/08/03 04:30:00;;;;;;;7.47;2.17;;;15.80;99.90;;;;;;5012561;28;20048;-64
2021/08/03 04:33:04;;;;;;;6.78;2.00;;;15.80;99.90;;;;;;5012541;28;20034;-64
2021/08/03 04:36:08;;;;;;;7.78;2.20;;;15.70;99.90;;;;;;5012870;28;20041;-65
2021/08/03 04:39:12;;;;;;;3.60;1.77;;;15.70;99.90;;;;;;5011871;28;20033;-63
2021/08/03 04:42:16;;;;;;;6.57;2.38;;;15.90;99.90;;;;;;5012798;28;20045;-64
2021/08/03 04:45:20;;;;;;;11.00;2.63;;;15.90;99.90;;;;;;5010473;28;20042;-65
2021/08/03 04:48:24;;;;;;;7.00;2.22;;;15.80;99.90;;;;;;4994424;28;20405;-64
2021/08/03 04:51:28;;;;;;;7.30;1.90;;;16.00;99.90;;;;;;4998733;28;20034;-64
2021/08/03 04:54:32;;;;;;;8.18;2.30;;;16.00;99.90;;;;;;5011008;28;20101;-64
2021/08/03 04:57:37;;;;;;;9.13;2.40;;;16.20;99.90;;;;;;5011937;28;20365;-64
2021/08/03 05:00:41;;;;;;;5.68;1.90;;;16.40;99.90;;;;;;5009980;28;20388;-64
2021/08/03 05:03:45;;;;;;;4.18;1.70;;;17.90;99.90;;;;;;5011863;28;20038;-64
2021/08/03 05:06:49;;;;;;;5.38;2.13;;;19.20;99.90;;;;;;5011970;28;20082;-65
2021/08/03 05:09:53;;;;;;;4.95;1.73;;;19.70;99.90;;;;;;5011014;28;20045;-64
2021/08/03 05:12:58;;;;;;;8.75;3.08;;;19.50;99.90;;;;;;5011415;28;20037;-64
2021/08/03 05:16:02;;;;;;;4.50;1.90;;;19.80;99.90;;;;;;5011034;28;20538;-64
2021/08/03 05:19:07;;;;;;;4.43;2.03;;;20.10;99.90;;;;;;5010684;28;20042;-65
2021/08/03 05:22:11;;;;;;;7.07;1.65;;;21.10;99.90;;;;;;5011954;28;20045;-65
2021/08/03 05:25:15;;;;;;;8.00;2.40;;;23.20;99.90;;;;;;5012110;28;20056;-64
2021/08/03 05:28:20;;;;;;;8.93;2.20;;;24.20;97.30;;;;;;5010922;28;20043;-64
2021/08/03 05:31:25;;;;;;;7.20;1.70;;;24.80;96.10;;;;;;5010602;28;20038;-64
2021/08/03 05:34:29;;;;;;;5.47;1.52;;;25.10;94.70;;;;;;5006527;28;20037;-64
2021/08/03 05:37:33;;;;;;;6.80;1.70;;;24.20;94.40;;;;;;5009585;28;20037;-64
2021/08/03 05:40:36;;;;;;;4.93;1.60;;;23.50;95.50;;;;;;5010556;28;20058;-65
2021/08/03 05:43:40;;;;;;;4.60;1.70;;;24.50;95.40;;;;;;5010589;28;20037;-64
2021/08/03 05:46:44;;;;;;;7.63;1.40;;;25.40;94.00;;;;;;5010799;28;20101;-65
2021/08/03 05:49:48;;;;;;;7.50;1.92;;;24.90;93.60;;;;;;5006742;28;20038;-65
2021/08/03 05:52:53;;;;;;;6.78;1.52;;;25.20;92.80;;;;;;5007016;28;20054;-65
2021/08/03 05:55:57;;;;;;;4.97;1.77;;;24.40;93.20;;;;;;5010657;28;20054;-64
2021/08/03 05:59:01;;;;;;;7.07;1.55;;;24.30;93.40;;;;;;5002294;28;20050;-65
2021/08/03 06:02:05;;;;;;;8.85;1.50;;;24.30;93.70;;;;;;5009460;28;20034;-65
2021/08/03 06:05:10;;;;;;;5.53;1.60;;;24.50;93.60;;;;;;5009974;28;20042;-65
2021/08/03 06:08:16;;;;;;;4.00;1.40;;;24.60;93.30;;;;;;5004653;28;20048;-65
2021/08/03 06:11:25;;;;;;;6.75;1.52;;;24.60;93.10;;;;;;5010720;28;20051;-65
2021/08/03 06:14:40;;;;;;;7.65;1.50;;;25.40;92.40;;;;;;5011434;28;20049;-65
2021/08/03 06:17:50;;;;;;;6.03;1.50;;;27.10;91.20;;;;;;5001833;28;20038;-65
2021/08/03 06:20:54;;;;;;;6.22;1.60;;;28.20;89.30;;;;;;4991799;28;20042;-65
2021/08/03 06:23:59;;;;;;;3.85;1.42;;;28.90;86.10;;;;;;4992533;28;20049;-64
2021/08/03 06:27:08;;;;;;;3.60;1.08;;;28.40;84.70;;;;;;4991519;28;20049;-64
2021/08/03 06:30:12;;;;;;;8.57;2.35;;;28.60;84.00;;;;;;4991315;28;20030;-65
2021/08/03 06:33:18;;;;;;;5.72;1.92;;;29.60;82.30;;;;;;4991598;28;20053;-65
2021/08/03 06:36:21;;;;;;;6.57;1.40;;;30.30;80.70;;;;;;4999022;28;20053;-65
2021/08/03 06:39:25;;;;;;;4.65;1.42;;;30.80;77.70;;;;;;5013427;28;20062;-64
2021/08/03 06:42:48;;;;;;;8.20;1.38;;;30.00;76.40;;;;;;5015473;28;20041;-63
2021/08/03 06:46:01;;;;;;;6.45;1.40;;;29.40;77.50;;;;;;5000287;28;20049;-64
2021/08/03 06:49:10;;;;;;;6.40;1.40;;;29.90;78.10;;;;;;5010862;28;20490;-64
2021/08/03 06:52:16;;;;;;;8.05;1.40;;;30.80;77.00;;;;;;5013739;28;20384;-65
2021/08/03 06:55:32;;;;;;;3.50;1.33;;;31.50;74.10;;;;;;5005566;28;20053;-64
2021/08/03 06:58:48;;;;;;;6.32;1.73;;;31.50;74.20;;;;;;5011054;28;20046;-64
2021/08/03 07:02:00;;;;;;;6.07;1.50;;;29.60;74.80;;;;;;5013823;28;20042;-64
2021/08/03 07:05:08;;;;;;;4.82;1.50;;;27.50;77.70;;;;;;5009236;28;20048;-64
2021/08/03 07:08:15;;;;;;;4.82;1.73;;;27.60;79.10;;;;;;5005333;28;20049;-64
2021/08/03 07:11:20;;;;;;;8.25;2.03;;;27.20;79.60;;;;;;4997664;28;20042;-64
2021/08/03 07:14:25;;;;;;;6.47;1.70;;;27.70;79.60;;;;;;5011272;28;20044;-64
2021/08/03 07:17:30;;;;;;;5.07;1.30;;;28.30;79.40;;;;;;5012827;28;20049;-64
2021/08/03 07:20:34;;;;;;;9.18;1.42;;;28.40;79.00;;;;;;5000116;28;20049;-63
2021/08/03 07:23:42;;;;;;;5.95;1.27;;;27.90;79.10;;;;;;5002583;28;20476;-64
2021/08/03 07:26:47;;;;;;;5.13;1.20;;;27.30;79.90;;;;;;5001510;28;20027;-64
2021/08/03 07:29:52;;;;;;;5.88;2.00;;;26.90;81.20;;;;;;5003932;28;20404;-65
2021/08/03 07:32:57;;;;;;;3.03;1.40;;;28.20;80.30;;;;;;5007985;28;20053;-64
2021/08/03 07:36:01;;;;;;;5.65;1.95;;;29.50;78.20;;;;;;5001741;28;20470;-64
2021/08/03 07:39:06;;;;;;;5.32;1.50;;;29.30;77.90;;;;;;5004316;28;20515;-64
2021/08/03 07:42:11;;;;;;;8.35;1.65;;;30.10;77.40;;;;;;4994592;28;20050;-64
2021/08/03 07:45:15;;;;;;;5.55;1.30;;;30.20;77.60;;;;;;4994305;28;20038;-65
2021/08/03 07:48:19;;;;;;;4.70;1.35;;;31.70;76.40;;;;;;4993653;28;20042;-65
2021/08/03 07:51:25;;;;;;;9.10;2.42;;;31.80;74.90;;;;;;4993032;28;20057;-65
2021/08/03 07:54:29;;;;;;;10.20;1.98;;;32.00;74.90;;;;;;4994060;28;20046;-65
2021/08/03 07:57:33;;;;;;;6.78;1.50;;;32.80;72.50;;;;;;4994253;28;20053;-65
2021/08/03 08:00:37;;;;;;;6.18;1.63;;;32.80;72.50;;;;;;5010337;28;20049;-65
2021/08/03 08:03:41;;;;;;;6.25;1.48;;;30.80;76.20;;;;;;5013035;28;21461;-65
2021/08/03 08:06:45;;;;;;;8.40;1.50;;;32.60;73.90;;;;;;5012716;28;20480;-66
2021/08/03 08:09:49;;;;;;;2.22;1.13;;;33.80;72.00;;;;;;5011258;28;20046;-64
2021/08/03 08:12:53;;;;;;;6.30;1.60;;;34.40;70.50;;;;;;5012622;28;20610;-64
2021/08/03 08:15:57;;;;;;;4.20;1.75;;;34.60;70.20;;;;;;5001670;28;20043;-65
2021/08/03 08:19:01;;;;;;;4.82;1.25;;;34.90;69.60;;;;;;5003985;28;20041;-65
2021/08/03 08:22:05;;;;;;;2.97;1.20;;;35.00;69.00;;;;;;5006208;28;20040;-66
2021/08/03 08:25:10;;;;;;;4.22;1.20;;;33.60;70.20;;;;;;5001372;28;20070;-65
2021/08/03 08:28:16;;;;;;;7.22;1.38;;;35.30;68.20;;;;;;5011863;28;20038;-66
2021/08/03 08:31:21;;;;;;;5.65;1.17;;;35.80;67.70;;;;;;5012150;28;20045;-66
2021/08/03 08:34:25;;;;;;;6.22;1.20;;;37.00;65.90;;;;;;5001105;28;20062;-66
2021/08/03 08:37:30;;;;;;;5.82;1.50;;;38.40;64.20;;;;;;5008527;28;20033;-65
2021/08/03 08:40:36;;;;;;;3.45;1.00;;;39.30;62.50;;;;;;5005161;28;20038;-66
2021/08/03 08:43:41;;;;;;;4.57;1.20;;;40.20;59.90;;;;;;5011789;28;20057;-66
2021/08/03 08:46:46;;;;;;;1.90;0.80;;;40.40;58.60;;;;;;4999013;28;20046;-66
2021/08/03 08:49:50;;;;;;;9.80;1.52;;;40.90;56.50;;;;;;5007748;28;20042;-66
2021/08/03 08:52:56;;;;;;;0.95;0.50;;;41.80;56.50;;;;;;5010868;28;20046;-67
2021/08/03 08:56:02;;;;;;;18.80;1.35;;;41.90;55.40;;;;;;5002802;28;20050;-66
2021/08/03 08:59:08;;;;;;;3.35;0.77;;;41.50;55.70;;;;;;4998563;28;20041;-66
2021/08/03 09:02:15;;;;;;;1.05;0.68;;;41.80;53.00;;;;;;5004320;28;20033;-64
2021/08/03 09:05:30;;;;;;;4.03;0.80;;;42.90;52.10;;;;;;5006162;28;20048;-66
2021/08/03 09:08:40;;;;;;;4.88;0.80;;;43.50;52.00;;;;;;4999137;28;20038;-65
2021/08/03 09:11:46;;;;;;;1.70;0.68;;;42.90;51.60;;;;;;5007839;28;20042;-66
2021/08/03 09:14:50;;;;;;;4.22;0.75;;;42.80;51.20;;;;;;5002987;28;20053;-66
2021/08/03 09:18:12;;;;;;;2.08;1.00;;;43.50;51.50;;;;;;5010064;28;20429;-66
2021/08/03 09:21:22;;;;;;;2.70;1.00;;;43.60;50.80;;;;;;5005201;28;20552;-66
2021/08/03 09:24:27;;;;;;;1.38;0.80;;;43.90;50.60;;;;;;4999638;28;20034;-66
2021/08/03 09:27:42;;;;;;;2.50;0.70;;;44.40;50.50;;;;;;5002973;28;20095;-66
2021/08/03 09:30:47;;;;;;;4.32;0.85;;;45.10;50.50;;;;;;5003587;28;20046;-66
2021/08/03 09:33:51;;;;;;;2.90;0.82;;;45.50;49.90;;;;;;5004360;28;20077;-66
2021/08/03 09:36:59;;;;;;;3.70;1.00;;;46.20;49.70;;;;;;5003818;28;20056;-66
2021/08/03 09:40:33;;;;;;;5.53;1.10;;;46.80;48.80;;;;;;4998316;28;20612;-65
2021/08/03 09:43:38;;;;;;;2.00;0.80;;;46.30;47.90;;;;;;5004241;28;20076;-65
2021/08/03 09:46:42;;;;;;;3.03;0.95;;;44.80;48.80;;;;;;5005336;28;20668;-65
2021/08/03 09:49:49;;;;;;;3.95;0.90;;;44.90;49.50;;;;;;5009037;28;20049;-66
2021/08/03 09:52:53;;;;;;;2.75;0.95;;;45.20;49.70;;;;;;5003390;28;20054;-67
2021/08/03 09:55:57;;;;;;;3.30;1.00;;;45.00;48.90;;;;;;5006821;28;20046;-65
2021/08/03 09:59:06;;;;;;;2.88;0.75;;;43.40;50.00;;;;;;4998718;28;20053;-65
2021/08/03 10:02:17;;;;;;;2.78;1.00;;;43.50;50.10;;;;;;5005251;28;20042;-65
2021/08/03 10:05:22;;;;;;;2.97;0.60;;;45.20;49.40;;;;;;5005905;28;20048;-66
2021/08/03 10:08:26;;;;;;;4.65;0.85;;;44.90;49.10;;;;;;4995492;28;20049;-65
2021/08/03 10:11:31;;;;;;;4.22;0.93;;;44.40;48.90;;;;;;5000844;28;20029;-67
2021/08/03 10:14:35;;;;;;;3.05;0.77;;;38.30;52.00;;;;;;5007995;28;20376;-66
2021/08/03 10:17:41;;;;;;;3.13;0.80;;;38.80;52.30;;;;;;5009592;28;20066;-65
2021/08/03 10:20:47;;;;;;;2.83;0.90;;;39.80;52.10;;;;;;5008535;28;20034;-65
2021/08/03 10:24:16;;;;;;;4.43;1.17;;;40.80;50.80;;;;;;5003798;28;20161;-66
2021/08/03 10:27:20;;;;;;;2.72;0.98;;;40.20;50.70;;;;;;5003075;28;20118;-66
2021/08/03 10:30:27;;;;;;;3.35;0.90;;;39.00;51.50;;;;;;5010996;28;20109;-66
2021/08/03 10:33:44;;;;;;;3.67;1.00;;;41.50;50.90;;;;;;5010397;28;20046;-65
2021/08/03 10:36:52;;;;;;;2.63;0.90;;;40.30;51.20;;;;;;5011864;28;20034;-67
2021/08/03 10:39:58;;;;;;;4.20;0.90;;;41.40;50.90;;;;;;5010128;28;20041;-66
2021/08/03 10:43:22;;;;;;;4.28;0.88;;;39.20;51.20;;;;;;4991381;28;20042;-66
2021/08/03 10:46:29;;;;;;;3.47;0.90;;;40.80;51.40;;;;;;4993307;28;20050;-66
2021/08/03 10:50:26;;;;;;;2.70;0.90;;;42.60;50.30;;;;;;5001425;28;20045;-65
2021/08/03 10:53:59;;;;;;;4.07;1.13;;;43.70;48.50;;;;;;4991123;28;20046;-65
2021/08/03 10:57:03;;;;;;;1.98;0.70;;;34.10;55.30;;;;;;4995846;28;20037;-65
2021/08/03 11:00:08;;;;;;;2.47;0.80;;;37.00;54.00;;;;;;5004677;28;20048;-67
2021/08/03 11:03:36;;;;;;;3.85;0.82;;;40.10;52.30;;;;;;5002167;28;20039;-66
2021/08/03 11:06:40;;;;;;;1.63;0.88;;;39.50;49.40;;;;;;4991315;28;20049;-66
2021/08/03 11:09:44;;;;;;;3.58;0.90;;;39.40;51.50;;;;;;5009823;28;20069;-66
2021/08/03 11:12:51;;;;;;;3.13;1.05;;;40.60;50.30;;;;;;5007435;28;20499;-65
2021/08/03 11:15:55;;;;;;;4.72;0.98;;;38.50;52.20;;;;;;5007830;28;20041;-64
2021/08/03 11:19:04;;;;;;;3.45;1.02;;;37.50;53.90;;;;;;5009517;28;20057;-66
2021/08/03 11:22:08;;;;;;;5.07;0.95;;;38.00;53.40;;;;;;5004940;28;20041;-66
2021/08/03 11:25:19;;;;;;;2.60;0.88;;;38.90;52.70;;;;;;5010111;28;20038;-66
2021/08/03 11:28:23;;;;;;;3.17;0.95;;;41.30;51.90;;;;;;5012552;28;20030;-67
2021/08/03 11:31:44;;;;;;;1.95;1.10;;;43.40;50.50;;;;;;4997180;28;20041;-66
2021/08/03 11:34:55;;;;;;;4.30;0.80;;;44.90;48.20;;;;;;5005647;28;20041;-66
2021/08/03 11:38:05;;;;;;;2.50;0.73;;;46.10;47.40;;;;;;5013830;28;20045;-64
2021/08/03 11:41:23;;;;;;;4.07;0.75;;;46.50;47.50;;;;;;5008654;28;20048;-65
2021/08/03 11:44:28;;;;;;;3.72;0.88;;;47.00;46.40;;;;;;5006518;28;20048;-66
2021/08/03 11:47:39;;;;;;;3.08;0.80;;;46.20;45.70;;;;;;5012687;28;20045;-66
2021/08/03 11:50:44;;;;;;;4.47;0.70;;;45.80;46.10;;;;;;5013545;28;20052;-66
2021/08/03 11:53:47;;;;;;;2.88;0.85;;;44.30;46.80;;;;;;4993799;28;20114;-66
2021/08/03 11:56:51;;;;;;;4.95;1.00;;;43.30;46.80;;;;;;4994018;28;20065;-65
2021/08/03 12:00:01;;;;;;;4.97;1.00;;;42.50;47.00;;;;;;5008256;28;20042;-65
2021/08/03 12:03:09;;;;;;;5.05;1.33;;;38.10;48.30;;;;;;4998615;28;20057;-65
2021/08/03 12:06:13;;;;;;;4.00;0.82;;;37.10;51.00;;;;;;4993707;28;20047;-66
2021/08/03 12:09:20;;;;;;;4.85;0.98;;;39.80;50.30;;;;;;5010481;28;20030;-65
2021/08/03 12:12:27;;;;;;;3.33;1.30;;;36.40;52.10;;;;;;4997888;28;20038;-65
2021/08/03 12:15:49;;;;;;;3.17;1.00;;;37.40;50.80;;;;;;5005082;28;20060;-65
2021/08/03 12:18:54;;;;;;;1.95;0.95;;;36.50;51.10;;;;;;5012114;28;20053;-66
2021/08/03 12:21:58;;;;;;;2.75;1.20;;;36.70;50.80;;;;;;5010277;28;20046;-64
2021/08/03 12:25:03;;;;;;;4.20;1.30;;;35.60;51.30;;;;;;5007654;28;20042;-64
2021/08/03 12:28:09;;;;;;;1.55;1.05;;;35.30;52.40;;;;;;4998175;28;20053;-67
2021/08/03 12:31:17;;;;;;;2.70;1.10;;;35.90;51.80;;;;;;5009234;28;20062;-64
2021/08/03 12:34:22;;;;;;;2.33;1.05;;;35.50;52.30;;;;;;4996172;28;20070;-65
2021/08/03 12:37:33;;;;;;;2.97;1.15;;;34.80;53.60;;;;;;5009586;28;20053;-64
2021/08/03 12:40:38;;;;;;;;;;;33.60;53.90;;;;;;5011902;28;20495;-66
2021/08/03 12:43:42;;;;;;;4.10;1.25;;;33.30;54.60;;;;;;5008372;28;19924;-66
2021/08/03 12:46:48;;;;;;;3.90;1.33;;;32.50;56.10;;;;;;5006820;28;20060;-67
2021/08/03 12:50:03;;;;;;;2.85;1.25;;;34.00;55.10;;;;;;5007804;28;20061;-66
2021/08/03 12:53:07;;;;;;;3.80;1.48;;;34.80;55.30;;;;;;5011290;28;20040;-66
2021/08/03 12:56:36;;;;;;;5.43;1.25;;;34.00;54.00;;;;;;5010397;28;20042;-66
2021/08/03 12:59:43;;;;;;;2.65;1.08;;;32.00;56.80;;;;;;5015037;28;20045;-65
2021/08/03 13:02:47;;;;;;;3.95;1.30;;;32.70;56.40;;;;;;5010512;28;20045;-66
2021/08/03 13:06:03;;;;;;;2.97;1.15;;;32.70;56.00;;;;;;5006323;28;20048;-65
2021/08/03 13:09:07;;;;;;;4.00;1.40;;;32.20;54.50;;;;;;5010482;28;20045;-66
2021/08/03 13:12:13;;;;;;;3.55;1.25;;;31.60;56.70;;;;;;5004481;28;20508;-66
2021/08/03 13:15:18;;;;;;;3.90;1.75;;;31.80;57.30;;;;;;5010151;28;20103;-66
2021/08/03 13:18:21;;;;;;;3.72;1.30;;;31.60;56.70;;;;;;4999598;28;20045;-65
2021/08/03 13:21:26;;;;;;;8.95;1.75;;;31.70;56.80;;;;;;5003497;28;20034;-67
2021/08/03 13:24:30;;;;;;;2.10;1.33;;;33.00;56.50;;;;;;5009631;28;20044;-65
2021/08/03 13:27:35;;;;;;;3.65;1.40;;;32.70;54.60;;;;;;5008214;28;20045;-66
2021/08/03 13:30:41;;;;;;;2.88;1.52;;;33.20;53.60;;;;;;4996057;28;20037;-66
2021/08/03 13:33:45;;;;;;;4.68;1.10;;;33.40;53.60;;;;;;5001140;28;20042;-66
2021/08/03 13:36:50;;;;;;;2.20;1.30;;;34.00;53.30;;;;;;4993609;28;20318;-66
2021/08/03 13:39:56;;;;;;;3.15;1.38;;;34.40;53.10;;;;;;4996472;28;20504;-66
2021/08/03 13:43:01;;;;;;;7.45;1.65;;;34.30;52.70;;;;;;4997333;28;20178;-65
2021/08/03 13:46:05;;;;;;;5.45;1.27;;;34.40;52.80;;;;;;4998678;28;20046;-67
2021/08/03 13:49:09;;;;;;;3.15;1.20;;;33.70;53.50;;;;;;4999320;28;20044;-65
2021/08/03 13:52:14;;;;;;;5.72;1.50;;;33.50;53.10;;;;;;5000287;28;20055;-66
2021/08/03 13:55:19;;;;;;;4.38;1.90;;;32.60;54.60;;;;;;4996590;28;20596;-65
2021/08/03 13:58:25;;;;;;;4.18;1.42;;;32.10;55.00;;;;;;4993867;28;20038;-65
2021/08/03 14:01:29;;;;;;;1.88;1.08;;;32.30;55.00;;;;;;4997974;28;20064;-65
2021/08/03 14:04:34;;;;;;;6.45;1.17;;;31.40;56.00;;;;;;4996992;28;20397;-67
2021/08/03 14:07:38;;;;;;;2.53;1.10;;;31.40;55.50;;;;;;5004648;28;20049;-65
2021/08/03 14:10:42;;;;;;;1.55;1.00;;;31.50;55.50;;;;;;5005918;28;20044;-65
2021/08/03 14:13:46;;;;;;;2.80;1.17;;;31.90;54.70;;;;;;5009338;28;20041;-66
2021/08/03 14:16:53;;;;;;;3.78;0.75;;;32.40;53.40;;;;;;5010740;28;20057;-66
2021/08/03 14:19:58;;;;;;;1.30;0.90;;;32.90;52.70;;;;;;5008661;28;20399;-65
2021/08/03 14:23:02;;;;;;;2.30;1.10;;;33.10;50.90;;;;;;5004236;28;20427;-65
2021/08/03 14:26:07;;;;;;;3.65;1.10;;;32.90;51.50;;;;;;4998004;28;20057;-66
2021/08/03 14:29:11;;;;;;;1.75;1.10;;;32.20;51.20;;;;;;5004898;28;20487;-65
2021/08/03 14:32:15;;;;;;;2.83;1.10;;;32.00;51.50;;;;;;5009078;28;20045;-65
2021/08/03 14:35:19;;;;;;;3.95;1.00;;;32.00;51.40;;;;;;5009583;28;20495;-66
2021/08/03 14:38:24;;;;;;;2.50;1.35;;;32.10;52.70;;;;;;4999444;28;20033;-65
2021/08/03 14:41:29;;;;;;;1.63;1.05;;;32.40;53.20;;;;;;5000991;28;20303;-66
2021/08/03 14:44:34;;;;;;;5.43;1.85;;;32.40;53.00;;;;;;5009693;28;20041;-66
2021/08/03 14:47:38;;;;;;;2.08;1.08;;;32.60;52.10;;;;;;5008514;28;20093;-66
2021/08/03 14:50:42;;;;;;;2.67;1.45;;;32.50;52.90;;;;;;5000963;28;20053;-65
2021/08/03 14:53:47;;;;;;;1.60;1.10;;;31.90;53.00;;;;;;5004338;28;20045;-65
2021/08/03 14:56:52;;;;;;;1.85;1.20;;;31.80;54.00;;;;;;4991297;28;20504;-65
2021/08/03 14:59:55;;;;;;;4.00;1.20;;;32.00;53.70;;;;;;5010049;28;20049;-67
2021/08/03 15:02:59;;;;;;;4.15;1.60;;;32.20;54.10;;;;;;4998638;28;20049;-65
2021/08/03 15:06:03;;;;;;;1.88;1.17;;;32.50;53.50;;;;;;5011585;28;20049;-65
2021/08/03 15:09:07;;;;;;;4.25;1.17;;;32.40;53.20;;;;;;5011455;28;20049;-65
2021/08/03 15:12:11;;;;;;;1.27;0.95;;;31.50;53.70;;;;;;5013320;28;20041;-64
2021/08/03 15:15:17;;;;;;;3.47;1.10;;;31.40;54.70;;;;;;5007999;28;20361;-65
2021/08/03 15:18:21;;;;;;;4.47;1.20;;;31.30;54.80;;;;;;5007774;28;20045;-65
2021/08/03 15:21:26;;;;;;;5.70;1.40;;;31.20;55.50;;;;;;5001567;28;20057;-64
2021/08/03 15:24:37;;;;;;;2.03;1.17;;;31.10;54.70;;;;;;4999502;28;20056;-64
2021/08/03 15:27:41;;;;;;;5.32;1.55;;;30.70;55.50;;;;;;5005432;28;20389;-64
2021/08/03 15:30:46;;;;;;;3.42;1.25;;;30.70;55.80;;;;;;5000043;28;20037;-64
2021/08/03 15:33:51;;;;;;;2.85;1.05;;;30.80;56.30;;;;;;4994905;28;20053;-64
2021/08/03 15:36:57;;;;;;;3.97;1.10;;;31.00;56.10;;;;;;4992682;28;20049;-65
2021/08/03 15:40:01;;;;;;;3.47;1.20;;;31.10;56.70;;;;;;4998810;28;20053;-65
2021/08/03 15:43:05;;;;;;;6.05;1.58;;;31.40;56.60;;;;;;5006061;28;20045;-65
2021/08/03 15:46:10;;;;;;;2.30;1.08;;;31.40;56.40;;;;;;5012696;28;20048;-65
2021/08/03 15:49:14;;;;;;;2.53;1.55;;;31.50;56.30;;;;;;5011552;28;20041;-64
2021/08/03 15:52:20;;;;;;;6.40;1.40;;;31.50;56.00;;;;;;5009926;28;20048;-65
2021/08/03 15:55:24;;;;;;;2.40;1.33;;;31.20;56.60;;;;;;5012866;28;20033;-65
2021/08/03 15:58:28;;;;;;;5.22;1.40;;;30.70;56.50;;;;;;5010250;28;20044;-66
2021/08/03 16:01:32;;;;;;;6.30;2.15;;;30.30;56.80;;;;;;5012630;28;20056;-65
2021/08/03 16:04:36;;;;;;;4.15;1.30;;;30.00;57.20;;;;;;5012887;28;20045;-64
2021/08/03 16:07:40;;;;;;;3.63;1.92;;;29.70;57.90;;;;;;5012003;28;20045;-66
2021/08/03 16:10:44;;;;;;;4.22;1.30;;;29.60;58.10;;;;;;5011679;28;20109;-65
2021/08/03 16:13:48;;;;;;;5.65;1.35;;;29.40;58.30;;;;;;5012608;28;20045;-65
2021/08/03 16:16:52;;;;;;;3.83;1.40;;;29.30;58.70;;;;;;5010450;28;20041;-65